Aviation Digital Data Service (ADDS)

Output produced by METARs form (1237 UTC 19 January 2019)
found at http://www.aviationweather.gov/metar/data/
 
Forecast for: OPDG (DERA GHAZI , PK)
Text: TAF OPDG 190950Z 1912/2006 36005KT 4000 FU SCT040 SCT120 TN05/2001Z
Forecast period: 1200 UTC 19 January 2019 to 0600 UTC 20 January 2019
Forecast type: FROM: standard forecast or significant change
Winds: from the N (360 degrees) at 6 MPH (5 knots; 2.6 m/s)
Visibility: 2.49 miles (4.01 km)
Ceiling: at least 12,000 feet AGL
Clouds: scattered clouds at 4000 feet AGL
scattered clouds at 12000 feet AGL
Weather: FU  (smoke)
Text: PROB30
Forecast period: 2000 UTC 19 January 2019 to 0000 UTC 20 January 2019
Forecast type: TEMPORARY: The following changes expected for less than half the time period
Winds: from the N (360 degrees) at 23 MPH (20 knots; 10.3 m/s)
Visibility: 1.24 miles (2.00 km)
Ceiling: 10000 feet AGL
Clouds: few clouds at 3000 feet AGL
scattered clouds at 4000 feet AGL
broken clouds at 10000 feet AGL
Weather: -TSRA  (light rain associated with thunderstorm(s))
Text: TEMPO 1920/1924 36020KT 2000 -TSRA FEW030CB SCT040 BKN100
Forecast period: 0100 to 0500 UTC 20 January 2019
Forecast type: TEMPORARY: The following changes expected for less than half the time period
Winds: calm
Visibility: 0.93 miles (1.50 km)
Ceiling: at least 12,000 feet AGL
Clouds: few clouds at 12000 feet AGL
Weather: BR  (mist)